sensor_id;sensor_type;location;lat;lon;timestamp;pressure;altitude;pressure_sealevel;temperature;humidity
65832;BME280;52593;42.648;23.332;2024-02-23T00:00:30;94277.75;;;4.79;79.61
65832;BME280;52593;42.648;23.332;2024-02-23T00:02:56;94252.03;;;4.98;78.35
65832;BME280;52593;42.648;23.332;2024-02-23T00:20:57;94264.56;;;5.22;75.93
65832;BME280;52593;42.648;23.332;2024-02-23T00:23:24;94259.94;;;5.24;75.73
65832;BME280;52593;42.648;23.332;2024-02-23T00:25:49;94249.38;;;4.98;76.62
65832;BME280;52593;42.648;23.332;2024-02-23T00:28:15;94255.97;;;4.94;77.61
65832;BME280;52593;42.648;23.332;2024-02-23T00:30:40;94245.72;;;4.99;77.37
65832;BME280;52593;42.648;23.332;2024-02-23T00:33:06;94272.22;;;4.73;77.67
65832;BME280;52593;42.648;23.332;2024-02-23T00:35:31;94255.75;;;4.61;78.83
65832;BME280;52593;42.648;23.332;2024-02-23T00:37:57;94256.94;;;4.67;77.16
65832;BME280;52593;42.648;23.332;2024-02-23T00:40:22;94253.66;;;4.73;77.07
65832;BME280;52593;42.648;23.332;2024-02-23T00:42:50;94250.63;;;4.86;76.41
65832;BME280;52593;42.648;23.332;2024-02-23T00:45:16;94215.16;;;4.87;76.13
65832;BME280;52593;42.648;23.332;2024-02-23T00:47:43;94221.78;;;4.82;76.11
65832;BME280;52593;42.648;23.332;2024-02-23T00:50:09;94241.88;;;4.67;77.09
65832;BME280;52593;42.648;23.332;2024-02-23T00:52:34;94239.47;;;4.56;77.58
65832;BME280;52593;42.648;23.332;2024-02-23T00:55:00;94222.50;;;4.49;77.16
65832;BME280;52593;42.648;23.332;2024-02-23T00:57:25;94230.22;;;4.60;78.13
65832;BME280;52593;42.648;23.332;2024-02-23T00:59:58;94216.31;;;4.84;77.48
65832;BME280;52593;42.648;23.332;2024-02-23T01:02:23;94225.34;;;4.73;77.91
65832;BME280;52593;42.648;23.332;2024-02-23T01:04:49;94225.31;;;4.47;78.75
65832;BME280;52593;42.648;23.332;2024-02-23T01:07:14;94226.28;;;4.64;77.69
65832;BME280;52593;42.648;23.332;2024-02-23T01:09:40;94219.75;;;4.76;76.80
65832;BME280;52593;42.648;23.332;2024-02-23T01:12:05;94205.69;;;4.58;78.12
65832;BME280;52593;42.648;23.332;2024-02-23T01:14:31;94231.91;;;4.61;77.85
65832;BME280;52593;42.648;23.332;2024-02-23T01:16:56;94209.25;;;4.49;78.06
65832;BME280;52593;42.648;23.332;2024-02-23T01:19:22;94224.38;;;4.56;78.00
65832;BME280;52593;42.648;23.332;2024-02-23T01:21:49;94219.16;;;4.38;78.75
65832;BME280;52593;42.648;23.332;2024-02-23T01:24:19;94206.38;;;4.34;80.21
65832;BME280;52593;42.648;23.332;2024-02-23T01:26:44;94220.44;;;4.34;80.17
65832;BME280;52593;42.648;23.332;2024-02-23T01:29:10;94214.06;;;4.45;79.03
65832;BME280;52593;42.648;23.332;2024-02-23T01:31:35;94204.81;;;4.49;78.63
65832;BME280;52593;42.648;23.332;2024-02-23T01:34:01;94189.91;;;4.48;78.91
65832;BME280;52593;42.648;23.332;2024-02-23T01:36:26;94213.19;;;4.62;78.65
65832;BME280;52593;42.648;23.332;2024-02-23T01:38:52;94190.28;;;4.79;77.24
65832;BME280;52593;42.648;23.332;2024-02-23T01:41:17;94186.56;;;4.98;75.09
65832;BME280;52593;42.648;23.332;2024-02-23T01:43:42;94194.88;;;4.77;76.00
65832;BME280;52593;42.648;23.332;2024-02-23T01:46:08;94197.66;;;5.02;75.68
65832;BME280;52593;42.648;23.332;2024-02-23T01:48:33;94197.31;;;4.97;76.18
65832;BME280;52593;42.648;23.332;2024-02-23T01:51:00;94175.94;;;4.98;75.82
65832;BME280;52593;42.648;23.332;2024-02-23T01:53:25;94187.81;;;4.86;76.13
65832;BME280;52593;42.648;23.332;2024-02-23T01:55:53;94174.22;;;4.81;76.25
65832;BME280;52593;42.648;23.332;2024-02-23T01:58:19;94166.72;;;4.76;75.96
65832;BME280;52593;42.648;23.332;2024-02-23T02:00:45;94166.69;;;5.03;74.73
65832;BME280;52593;42.648;23.332;2024-02-23T02:03:10;94163.19;;;5.02;74.91
65832;BME280;52593;42.648;23.332;2024-02-23T02:05:36;94163.28;;;4.84;75.67
65832;BME280;52593;42.648;23.332;2024-02-23T02:08:03;94168.66;;;5.00;75.11
65832;BME280;52593;42.648;23.332;2024-02-23T02:10:29;94152.44;;;5.04;74.97
65832;BME280;52593;42.648;23.332;2024-02-23T02:12:55;94177.34;;;4.76;76.24
65832;BME280;52593;42.648;23.332;2024-02-23T02:15:20;94179.03;;;4.86;76.66
65832;BME280;52593;42.648;23.332;2024-02-23T02:17:47;94172.41;;;4.90;76.26
65832;BME280;52593;42.648;23.332;2024-02-23T02:20:13;94169.41;;;4.85;76.05
65832;BME280;52593;42.648;23.332;2024-02-23T02:22:39;94178.41;;;4.92;76.27
65832;BME280;52593;42.648;23.332;2024-02-23T02:25:05;94176.75;;;4.99;76.38
65832;BME280;52593;42.648;23.332;2024-02-23T02:27:31;94172.53;;;5.14;75.84
65832;BME280;52593;42.648;23.332;2024-02-23T02:29:57;94174.09;;;4.91;76.74
65832;BME280;52593;42.648;23.332;2024-02-23T02:32:23;94177.59;;;4.39;77.79
65832;BME280;52593;42.648;23.332;2024-02-23T02:34:49;94172.94;;;4.41;78.26
65832;BME280;52593;42.648;23.332;2024-02-23T02:37:14;94168.03;;;4.46;77.87
65832;BME280;52593;42.648;23.332;2024-02-23T02:39:40;94180.97;;;4.23;79.04
65832;BME280;52593;42.648;23.332;2024-02-23T02:42:05;94190.63;;;4.32;78.78
65832;BME280;52593;42.648;23.332;2024-02-23T02:44:31;94181.84;;;4.58;78.85
65832;BME280;52593;42.648;23.332;2024-02-23T02:46:57;94178.38;;;4.57;78.15
65832;BME280;52593;42.648;23.332;2024-02-23T02:49:22;94184.25;;;4.43;77.30
65832;BME280;52593;42.648;23.332;2024-02-23T02:51:48;94175.88;;;4.29;78.46
65832;BME280;52593;42.648;23.332;2024-02-23T02:54:13;94188.66;;;4.16;79.77
65832;BME280;52593;42.648;23.332;2024-02-23T02:56:47;94184.28;;;4.25;79.63
65832;BME280;52593;42.648;23.332;2024-02-23T02:59:13;94190.69;;;4.40;79.64
65832;BME280;52593;42.648;23.332;2024-02-23T03:01:39;94173.84;;;4.50;78.81
65832;BME280;52593;42.648;23.332;2024-02-23T03:04:05;94173.06;;;4.57;78.20
65832;BME280;52593;42.648;23.332;2024-02-23T03:06:30;94174.97;;;4.47;77.80
65832;BME280;52593;42.648;23.332;2024-02-23T03:08:55;94183.06;;;4.19;79.24
65832;BME280;52593;42.648;23.332;2024-02-23T03:11:21;94195.94;;;4.32;79.16
65832;BME280;52593;42.648;23.332;2024-02-23T03:13:46;94202.16;;;4.23;79.80
65832;BME280;52593;42.648;23.332;2024-02-23T03:16:20;94182.44;;;4.25;79.20
65832;BME280;52593;42.648;23.332;2024-02-23T03:18:48;94183.75;;;4.21;79.32
65832;BME280;52593;42.648;23.332;2024-02-23T03:21:15;94184.31;;;4.33;78.84
65832;BME280;52593;42.648;23.332;2024-02-23T03:23:41;94187.38;;;4.20;79.96
65832;BME280;52593;42.648;23.332;2024-02-23T03:26:06;94195.47;;;4.19;80.31
65832;BME280;52593;42.648;23.332;2024-02-23T03:28:32;94182.03;;;4.12;80.53
65832;BME280;52593;42.648;23.332;2024-02-23T03:30:58;94186.63;;;4.10;80.42
65832;BME280;52593;42.648;23.332;2024-02-23T03:33:23;94188.09;;;4.04;80.48
65832;BME280;52593;42.648;23.332;2024-02-23T03:35:49;94193.91;;;4.26;80.08
65832;BME280;52593;42.648;23.332;2024-02-23T03:38:14;94191.19;;;4.00;81.35
65832;BME280;52593;42.648;23.332;2024-02-23T03:40:40;94187.06;;;4.41;79.40
65832;BME280;52593;42.648;23.332;2024-02-23T03:43:06;94187.59;;;4.27;80.07
65832;BME280;52593;42.648;23.332;2024-02-23T03:45:31;94185.59;;;4.03;80.86
65832;BME280;52593;42.648;23.332;2024-02-23T03:47:58;94196.19;;;3.85;82.29
65832;BME280;52593;42.648;23.332;2024-02-23T03:50:24;94187.81;;;4.34;80.68
65832;BME280;52593;42.648;23.332;2024-02-23T03:52:50;94182.03;;;4.12;80.62
65832;BME280;52593;42.648;23.332;2024-02-23T03:55:15;94197.06;;;3.93;81.99
65832;BME280;52593;42.648;23.332;2024-02-23T03:57:41;94188.47;;;3.91;82.17
65832;BME280;52593;42.648;23.332;2024-02-23T04:00:07;94189.28;;;4.10;81.63
65832;BME280;52593;42.648;23.332;2024-02-23T04:02:33;94190.59;;;4.06;82.25
65832;BME280;52593;42.648;23.332;2024-02-23T04:04:59;94174.00;;;3.86;83.22
65832;BME280;52593;42.648;23.332;2024-02-23T04:07:24;94180.31;;;4.03;83.11
65832;BME280;52593;42.648;23.332;2024-02-23T04:09:50;94190.75;;;4.04;82.04
65832;BME280;52593;42.648;23.332;2024-02-23T04:12:18;94207.00;;;4.09;81.78
65832;BME280;52593;42.648;23.332;2024-02-23T04:14:45;94200.31;;;4.05;82.57
65832;BME280;52593;42.648;23.332;2024-02-23T04:17:11;94188.91;;;3.87;84.15
65832;BME280;52593;42.648;23.332;2024-02-23T04:19:37;94205.09;;;4.02;83.26
65832;BME280;52593;42.648;23.332;2024-02-23T04:22:03;94183.44;;;4.24;82.17
65832;BME280;52593;42.648;23.332;2024-02-23T04:24:29;94191.31;;;4.16;82.22
65832;BME280;52593;42.648;23.332;2024-02-23T04:26:54;94192.84;;;4.01;83.15
65832;BME280;52593;42.648;23.332;2024-02-23T04:29:20;94198.06;;;3.92;83.24
65832;BME280;52593;42.648;23.332;2024-02-23T04:31:46;94185.44;;;4.04;82.96
65832;BME280;52593;42.648;23.332;2024-02-23T04:34:11;94200.41;;;3.96;83.38
65832;BME280;52593;42.648;23.332;2024-02-23T04:36:37;94211.16;;;3.76;83.69
65832;BME280;52593;42.648;23.332;2024-02-23T04:39:02;94207.53;;;3.77;83.85
65832;BME280;52593;42.648;23.332;2024-02-23T04:41:28;94214.72;;;3.85;84.02
65832;BME280;52593;42.648;23.332;2024-02-23T04:43:53;94208.25;;;3.87;83.71
65832;BME280;52593;42.648;23.332;2024-02-23T04:46:25;94195.28;;;3.94;83.35
65832;BME280;52593;42.648;23.332;2024-02-23T04:48:50;94219.34;;;3.55;84.76
65832;BME280;52593;42.648;23.332;2024-02-23T04:51:16;94205.47;;;3.53;85.27
65832;BME280;52593;42.648;23.332;2024-02-23T04:53:41;94216.44;;;3.76;84.83
65832;BME280;52593;42.648;23.332;2024-02-23T04:56:07;94205.91;;;3.84;83.54
65832;BME280;52593;42.648;23.332;2024-02-23T04:58:32;94209.47;;;3.57;84.63
65832;BME280;52593;42.648;23.332;2024-02-23T05:00:58;94208.50;;;3.76;84.26
65832;BME280;52593;42.648;23.332;2024-02-23T05:03:23;94215.69;;;3.38;85.40
65832;BME280;52593;42.648;23.332;2024-02-23T05:05:49;94220.31;;;3.36;85.91
65832;BME280;52593;42.648;23.332;2024-02-23T05:08:21;94224.59;;;3.65;84.90
65832;BME280;52593;42.648;23.332;2024-02-23T05:10:52;94197.41;;;3.72;84.22
65832;BME280;52593;42.648;23.332;2024-02-23T05:13:18;94205.47;;;3.53;84.58
65832;BME280;52593;42.648;23.332;2024-02-23T05:15:44;94225.97;;;3.41;85.86
65832;BME280;52593;42.648;23.332;2024-02-23T05:18:09;94234.03;;;3.49;85.74
65832;BME280;52593;42.648;23.332;2024-02-23T05:20:34;94240.88;;;3.42;85.23
65832;BME280;52593;42.648;23.332;2024-02-23T05:23:00;94233.22;;;3.67;84.31
65832;BME280;52593;42.648;23.332;2024-02-23T05:25:26;94235.41;;;3.71;83.77
65832;BME280;52593;42.648;23.332;2024-02-23T05:27:52;94239.50;;;3.84;83.00
65832;BME280;52593;42.648;23.332;2024-02-23T05:30:17;94246.00;;;3.71;83.46
65832;BME280;52593;42.648;23.332;2024-02-23T05:32:43;94247.72;;;3.63;83.98
65832;BME280;52593;42.648;23.332;2024-02-23T05:35:08;94238.81;;;3.64;83.81
65832;BME280;52593;42.648;23.332;2024-02-23T05:37:37;94235.63;;;3.60;83.51
65832;BME280;52593;42.648;23.332;2024-02-23T05:40:03;94233.22;;;3.67;83.99
65832;BME280;52593;42.648;23.332;2024-02-23T05:42:32;94245.47;;;3.68;84.09
65832;BME280;52593;42.648;23.332;2024-02-23T05:44:58;94240.28;;;3.48;84.58
65832;BME280;52593;42.648;23.332;2024-02-23T05:47:23;94253.16;;;3.61;85.23
65832;BME280;52593;42.648;23.332;2024-02-23T05:49:50;94249.97;;;3.57;84.67
65832;BME280;52593;42.648;23.332;2024-02-23T05:52:16;94220.22;;;3.91;82.99
65832;BME280;52593;42.648;23.332;2024-02-23T05:54:41;94254.31;;;3.77;84.52
65832;BME280;52593;42.648;23.332;2024-02-23T05:57:07;94256.22;;;3.66;84.72
65832;BME280;52593;42.648;23.332;2024-02-23T05:59:32;94245.03;;;3.90;82.99
65832;BME280;52593;42.648;23.332;2024-02-23T06:01:58;94245.50;;;4.04;82.80
65832;BME280;52593;42.648;23.332;2024-02-23T06:04:24;94251.25;;;4.17;81.20
65832;BME280;52593;42.648;23.332;2024-02-23T06:06:49;94269.41;;;4.12;81.42
65832;BME280;52593;42.648;23.332;2024-02-23T06:09:15;94254.41;;;4.39;80.90
65832;BME280;52593;42.648;23.332;2024-02-23T06:11:41;94259.81;;;4.29;80.47
65832;BME280;52593;42.648;23.332;2024-02-23T06:14:07;94274.00;;;4.28;80.98
65832;BME280;52593;42.648;23.332;2024-02-23T06:16:33;94267.28;;;4.34;81.12
65832;BME280;52593;42.648;23.332;2024-02-23T06:18:58;94277.78;;;4.43;80.80
65832;BME280;52593;42.648;23.332;2024-02-23T06:21:24;94261.53;;;4.82;79.47
65832;BME280;52593;42.648;23.332;2024-02-23T06:23:49;94238.19;;;4.86;79.34
65832;BME280;52593;42.648;23.332;2024-02-23T06:26:15;94249.56;;;4.78;79.23
65832;BME280;52593;42.648;23.332;2024-02-23T06:28:40;94269.03;;;4.87;78.59
65832;BME280;52593;42.648;23.332;2024-02-23T06:31:09;94268.41;;;4.93;78.18
65832;BME280;52593;42.648;23.332;2024-02-23T06:33:35;94264.75;;;4.94;79.01
65832;BME280;52593;42.648;23.332;2024-02-23T06:36:01;94270.94;;;5.03;78.43
65832;BME280;52593;42.648;23.332;2024-02-23T06:38:27;94272.84;;;5.19;77.76
65832;BME280;52593;42.648;23.332;2024-02-23T06:40:52;94274.59;;;5.36;77.08
65832;BME280;52593;42.648;23.332;2024-02-23T06:43:18;94271.66;;;5.48;75.02
65832;BME280;52593;42.648;23.332;2024-02-23T06:45:44;94272.69;;;5.55;75.63
65832;BME280;52593;42.648;23.332;2024-02-23T06:48:09;94268.75;;;5.59;74.80
65832;BME280;52593;42.648;23.332;2024-02-23T06:50:35;94274.25;;;5.74;74.70
65832;BME280;52593;42.648;23.332;2024-02-23T06:53:01;94257.47;;;6.08;72.45
65832;BME280;52593;42.648;23.332;2024-02-23T06:55:27;94259.28;;;6.07;72.22
65832;BME280;52593;42.648;23.332;2024-02-23T06:57:54;94259.56;;;5.96;74.94
65832;BME280;52593;42.648;23.332;2024-02-23T07:00:20;94259.25;;;5.99;73.55
65832;BME280;52593;42.648;23.332;2024-02-23T07:02:46;94271.72;;;6.07;74.23
65832;BME280;52593;42.648;23.332;2024-02-23T07:05:12;94264.94;;;6.21;72.77
65832;BME280;52593;42.648;23.332;2024-02-23T07:07:38;94280.06;;;6.37;71.58
65832;BME280;52593;42.648;23.332;2024-02-23T07:10:06;94273.44;;;6.49;70.50
65832;BME280;52593;42.648;23.332;2024-02-23T07:12:31;94266.44;;;6.40;70.39
65832;BME280;52593;42.648;23.332;2024-02-23T07:14:57;94262.16;;;6.47;70.78
65832;BME280;52593;42.648;23.332;2024-02-23T07:17:23;94272.94;;;6.54;70.01
65832;BME280;52593;42.648;23.332;2024-02-23T07:19:49;94266.13;;;6.43;70.86
65832;BME280;52593;42.648;23.332;2024-02-23T07:22:16;94264.31;;;6.52;71.30
65832;BME280;52593;42.648;23.332;2024-02-23T07:24:43;94275.94;;;6.59;73.10
65832;BME280;52593;42.648;23.332;2024-02-23T07:27:09;94262.81;;;6.82;70.25
65832;BME280;52593;42.648;23.332;2024-02-23T07:29:35;94230.84;;;7.07;68.79
65832;BME280;52593;42.648;23.332;2024-02-23T07:32:00;94235.72;;;6.87;69.61
65832;BME280;52593;42.648;23.332;2024-02-23T07:34:26;94245.13;;;7.06;69.68
65832;BME280;52593;42.648;23.332;2024-02-23T07:36:52;94254.25;;;7.20;69.50
65832;BME280;52593;42.648;23.332;2024-02-23T07:39:17;94265.91;;;7.19;69.73
65832;BME280;52593;42.648;23.332;2024-02-23T07:41:43;94258.94;;;7.01;70.44
65832;BME280;52593;42.648;23.332;2024-02-23T07:44:09;94233.66;;;7.13;69.80
65832;BME280;52593;42.648;23.332;2024-02-23T07:46:34;94264.63;;;7.06;71.53
65832;BME280;52593;42.648;23.332;2024-02-23T07:49:00;94277.22;;;7.21;71.06
65832;BME280;52593;42.648;23.332;2024-02-23T07:51:25;94228.09;;;7.40;70.15
65832;BME280;52593;42.648;23.332;2024-02-23T07:53:50;94225.66;;;7.22;70.75
65832;BME280;52593;42.648;23.332;2024-02-23T07:56:16;94247.13;;;7.20;70.75
65832;BME280;52593;42.648;23.332;2024-02-23T07:58:42;94252.75;;;7.25;70.93
65832;BME280;52593;42.648;23.332;2024-02-23T08:01:07;94250.00;;;7.50;71.15
65832;BME280;52593;42.648;23.332;2024-02-23T08:03:33;94258.91;;;7.74;70.57
65832;BME280;52593;42.648;23.332;2024-02-23T08:05:58;94249.16;;;7.58;70.40
65832;BME280;52593;42.648;23.332;2024-02-23T08:08:24;94251.69;;;7.82;70.28
65832;BME280;52593;42.648;23.332;2024-02-23T08:10:51;94243.34;;;7.85;69.26
65832;BME280;52593;42.648;23.332;2024-02-23T08:13:17;94245.59;;;7.74;70.66
65832;BME280;52593;42.648;23.332;2024-02-23T08:15:43;94247.31;;;7.98;69.08
65832;BME280;52593;42.648;23.332;2024-02-23T08:18:09;94246.47;;;7.97;69.29
65832;BME280;52593;42.648;23.332;2024-02-23T08:20:35;94245.47;;;7.98;69.67
65832;BME280;52593;42.648;23.332;2024-02-23T08:23:01;94245.69;;;8.20;69.99
65832;BME280;52593;42.648;23.332;2024-02-23T08:25:27;94247.91;;;8.08;69.91
65832;BME280;52593;42.648;23.332;2024-02-23T08:27:55;94241.03;;;8.45;68.81
65832;BME280;52593;42.648;23.332;2024-02-23T08:30:21;94234.94;;;8.60;68.38
65832;BME280;52593;42.648;23.332;2024-02-23T08:32:47;94240.44;;;8.58;68.19
65832;BME280;52593;42.648;23.332;2024-02-23T08:35:12;94240.72;;;8.63;68.84
65832;BME280;52593;42.648;23.332;2024-02-23T08:37:38;94236.75;;;8.82;67.29
65832;BME280;52593;42.648;23.332;2024-02-23T08:40:05;94247.97;;;8.78;68.02
65832;BME280;52593;42.648;23.332;2024-02-23T08:42:31;94229.13;;;8.94;67.12
65832;BME280;52593;42.648;23.332;2024-02-23T08:44:57;94222.97;;;8.93;66.68
65832;BME280;52593;42.648;23.332;2024-02-23T08:47:22;94230.44;;;8.98;66.86
65832;BME280;52593;42.648;23.332;2024-02-23T08:49:48;94239.19;;;9.07;66.23
65832;BME280;52593;42.648;23.332;2024-02-23T08:52:13;94238.34;;;8.91;66.60
65832;BME280;52593;42.648;23.332;2024-02-23T08:54:39;94235.53;;;8.85;67.21
65832;BME280;52593;42.648;23.332;2024-02-23T08:57:05;94238.34;;;8.91;67.00
65832;BME280;52593;42.648;23.332;2024-02-23T08:59:30;94235.31;;;8.95;66.04
65832;BME280;52593;42.648;23.332;2024-02-23T09:01:56;94240.16;;;8.91;67.20
65832;BME280;52593;42.648;23.332;2024-02-23T09:04:21;94232.84;;;9.23;65.45
65832;BME280;52593;42.648;23.332;2024-02-23T09:06:46;94218.56;;;9.31;64.47
65832;BME280;52593;42.648;23.332;2024-02-23T09:09:14;94226.78;;;9.59;62.68
65832;BME280;52593;42.648;23.332;2024-02-23T09:11:39;94213.38;;;9.74;62.19
65832;BME280;52593;42.648;23.332;2024-02-23T09:14:05;94214.88;;;9.76;61.54
65832;BME280;52593;42.648;23.332;2024-02-23T09:16:30;94214.88;;;9.76;60.52
65832;BME280;52593;42.648;23.332;2024-02-23T09:18:56;94236.13;;;9.85;61.35
65832;BME280;52593;42.648;23.332;2024-02-23T09:21:22;94227.72;;;10.03;60.26
65832;BME280;52593;42.648;23.332;2024-02-23T09:23:47;94238.50;;;10.09;60.47
65832;BME280;52593;42.648;23.332;2024-02-23T09:26:13;94228.84;;;10.30;59.40
65832;BME280;52593;42.648;23.332;2024-02-23T09:28:38;94226.41;;;10.50;58.46
65832;BME280;52593;42.648;23.332;2024-02-23T09:31:06;94218.50;;;10.63;57.64
65832;BME280;52593;42.648;23.332;2024-02-23T09:33:31;94221.41;;;10.68;55.46
65832;BME280;52593;42.648;23.332;2024-02-23T09:35:57;94215.00;;;10.84;55.34
65832;BME280;52593;42.648;23.332;2024-02-23T09:38:23;94219.66;;;11.04;55.46
65832;BME280;52593;42.648;23.332;2024-02-23T09:40:51;94216.28;;;11.23;54.28
65832;BME280;52593;42.648;23.332;2024-02-23T09:43:17;94214.69;;;11.29;54.22
65832;BME280;52593;42.648;23.332;2024-02-23T09:45:44;94231.88;;;11.41;52.20
65832;BME280;52593;42.648;23.332;2024-02-23T09:48:11;94223.72;;;11.56;52.19
65832;BME280;52593;42.648;23.332;2024-02-23T09:50:39;94213.84;;;11.64;51.89
65832;BME280;52593;42.648;23.332;2024-02-23T09:53:07;94212.63;;;11.66;52.44
65832;BME280;52593;42.648;23.332;2024-02-23T09:55:35;94211.63;;;12.09;50.72
65832;BME280;52593;42.648;23.332;2024-02-23T09:58:02;94205.66;;;12.13;49.61
65832;BME280;52593;42.648;23.332;2024-02-23T10:00:29;94212.53;;;12.49;50.08
65832;BME280;52593;42.648;23.332;2024-02-23T10:02:55;94199.13;;;12.63;49.45
65832;BME280;52593;42.648;23.332;2024-02-23T10:05:29;94201.66;;;12.91;47.65
65832;BME280;52593;42.648;23.332;2024-02-23T10:07:55;94195.03;;;12.80;47.57
65832;BME280;52593;42.648;23.332;2024-02-23T10:10:32;94187.81;;;12.94;47.02
65832;BME280;52593;42.648;23.332;2024-02-23T10:12:59;94177.69;;;12.96;46.79
65832;BME280;52593;42.648;23.332;2024-02-23T10:15:25;94189.88;;;12.99;46.78
65832;BME280;52593;42.648;23.332;2024-02-23T10:17:51;94179.75;;;13.14;46.26
65832;BME280;52593;42.648;23.332;2024-02-23T10:20:16;94181.78;;;13.26;45.75
65832;BME280;52593;42.648;23.332;2024-02-23T10:22:43;94180.72;;;13.60;45.75
65832;BME280;52593;42.648;23.332;2024-02-23T10:25:09;94188.78;;;13.60;44.04
65832;BME280;52593;42.648;23.332;2024-02-23T10:27:34;94187.88;;;13.86;44.17
65832;BME280;52593;42.648;23.332;2024-02-23T10:30:00;94175.22;;;13.94;43.99
65832;BME280;52593;42.648;23.332;2024-02-23T10:32:29;94177.19;;;14.18;43.68
65832;BME280;52593;42.648;23.332;2024-02-23T10:35:00;94169.53;;;14.15;43.06
65832;BME280;52593;42.648;23.332;2024-02-23T10:37:26;94170.69;;;13.87;43.12
65832;BME280;52593;42.648;23.332;2024-02-23T10:39:55;94154.75;;;13.93;44.00
65832;BME280;52593;42.648;23.332;2024-02-23T10:42:23;94142.75;;;14.27;43.75
65832;BME280;52593;42.648;23.332;2024-02-23T10:44:50;94160.16;;;14.24;43.38
65832;BME280;52593;42.648;23.332;2024-02-23T10:47:16;94157.94;;;14.15;42.80
65832;BME280;52593;42.648;23.332;2024-02-23T10:49:44;94152.06;;;13.93;42.78
65832;BME280;52593;42.648;23.332;2024-02-23T10:52:11;94145.00;;;13.91;42.90
65832;BME280;52593;42.648;23.332;2024-02-23T10:54:39;94141.88;;;13.43;42.73
65832;BME280;52593;42.648;23.332;2024-02-23T10:57:06;94152.06;;;13.34;43.56
65832;BME280;52593;42.648;23.332;2024-02-23T10:59:32;94137.06;;;13.58;43.24
65832;BME280;52593;42.648;23.332;2024-02-23T11:01:59;94140.31;;;13.73;43.02
65832;BME280;52593;42.648;23.332;2024-02-23T11:04:26;94136.00;;;13.72;43.40
65832;BME280;52593;42.648;23.332;2024-02-23T11:06:54;94138.78;;;13.98;43.80
65832;BME280;52593;42.648;23.332;2024-02-23T11:09:24;94130.63;;;13.72;43.16
65832;BME280;52593;42.648;23.332;2024-02-23T11:11:57;94123.97;;;13.75;42.44
65832;BME280;52593;42.648;23.332;2024-02-23T11:14:30;94124.47;;;13.52;42.74
65832;BME280;52593;42.648;23.332;2024-02-23T11:16:58;94117.91;;;13.48;42.64
65832;BME280;52593;42.648;23.332;2024-02-23T11:19:35;94120.34;;;13.56;42.99
65832;BME280;52593;42.648;23.332;2024-02-23T11:22:01;94117.47;;;13.51;43.54
65832;BME280;52593;42.648;23.332;2024-02-23T11:24:31;94100.50;;;13.50;42.55
65832;BME280;52593;42.648;23.332;2024-02-23T11:27:01;94107.94;;;13.62;42.05
65832;BME280;52593;42.648;23.332;2024-02-23T11:29:34;94087.28;;;13.49;42.61
65832;BME280;52593;42.648;23.332;2024-02-23T11:32:01;94102.84;;;13.40;43.54
65832;BME280;52593;42.648;23.332;2024-02-23T11:34:29;94097.88;;;13.24;43.60
65832;BME280;52593;42.648;23.332;2024-02-23T11:36:55;94108.38;;;13.32;43.94
65832;BME280;52593;42.648;23.332;2024-02-23T11:39:22;94093.06;;;13.46;42.65
65832;BME280;52593;42.648;23.332;2024-02-23T11:41:49;94102.53;;;13.62;41.66
65832;BME280;52593;42.648;23.332;2024-02-23T11:44:15;94105.44;;;13.60;40.78
65832;BME280;52593;42.648;23.332;2024-02-23T11:46:43;94087.75;;;13.39;41.72
65832;BME280;52593;42.648;23.332;2024-02-23T11:49:08;94094.19;;;13.11;40.68
65832;BME280;52593;42.648;23.332;2024-02-23T11:51:35;94084.28;;;13.12;41.08
65832;BME280;52593;42.648;23.332;2024-02-23T11:54:01;94085.25;;;13.31;41.53
65832;BME280;52593;42.648;23.332;2024-02-23T11:56:26;94082.78;;;13.29;42.03
65832;BME280;52593;42.648;23.332;2024-02-23T11:58:54;94092.88;;;13.47;41.65
65832;BME280;52593;42.648;23.332;2024-02-23T12:01:20;94087.09;;;13.30;41.16
65832;BME280;52593;42.648;23.332;2024-02-23T12:03:46;94082.38;;;13.26;41.42
65832;BME280;52593;42.648;23.332;2024-02-23T12:06:11;94092.72;;;13.35;40.85
65832;BME280;52593;42.648;23.332;2024-02-23T12:08:40;94074.25;;;13.52;40.50
65832;BME280;52593;42.648;23.332;2024-02-23T12:11:07;94062.94;;;13.82;39.72
65832;BME280;52593;42.648;23.332;2024-02-23T12:13:34;94061.84;;;13.90;39.82
65832;BME280;52593;42.648;23.332;2024-02-23T12:16:00;94066.03;;;13.86;39.74
65832;BME280;52593;42.648;23.332;2024-02-23T12:18:26;94064.59;;;13.83;39.40
65832;BME280;52593;42.648;23.332;2024-02-23T12:20:52;94048.16;;;13.98;38.27
65832;BME280;52593;42.648;23.332;2024-02-23T12:23:18;94046.06;;;14.00;39.06
65832;BME280;52593;42.648;23.332;2024-02-23T12:25:56;94047.53;;;14.28;38.03
65832;BME280;52593;42.648;23.332;2024-02-23T12:28:23;94038.91;;;14.19;38.82
65832;BME280;52593;42.648;23.332;2024-02-23T12:31:02;94040.03;;;14.37;38.17
65832;BME280;52593;42.648;23.332;2024-02-23T12:33:28;94042.28;;;14.40;39.04
65832;BME280;52593;42.648;23.332;2024-02-23T12:36:01;94047.38;;;14.48;37.66
65832;BME280;52593;42.648;23.332;2024-02-23T12:38:27;94045.06;;;14.26;38.16
65832;BME280;52593;42.648;23.332;2024-02-23T12:40:53;94038.91;;;14.19;38.06
65832;BME280;52593;42.648;23.332;2024-02-23T12:43:18;94038.91;;;14.19;38.88
65832;BME280;52593;42.648;23.332;2024-02-23T12:45:47;94025.94;;;14.35;39.06
65832;BME280;52593;42.648;23.332;2024-02-23T12:48:16;94024.66;;;14.69;38.08
65832;BME280;52593;42.648;23.332;2024-02-23T12:50:42;94025.00;;;14.73;38.37
65832;BME280;52593;42.648;23.332;2024-02-23T12:53:11;94006.00;;;14.42;37.68
65832;BME280;52593;42.648;23.332;2024-02-23T12:55:56;94001.00;;;14.46;38.59
65832;BME280;52593;42.648;23.332;2024-02-23T12:58:21;94014.81;;;14.56;38.43
65832;BME280;52593;42.648;23.332;2024-02-23T13:00:46;94011.66;;;14.59;38.72
65832;BME280;52593;42.648;23.332;2024-02-23T13:03:12;94021.81;;;14.64;39.40
65832;BME280;52593;42.648;23.332;2024-02-23T13:05:37;94023.53;;;14.77;39.20
65832;BME280;52593;42.648;23.332;2024-02-23T13:08:03;94022.97;;;14.93;37.70